Terminal Aerodrome Forecast
Issued by NWS Wakefield, VA

Home | Current Version | Previous Version | Text Only | Print | Product List | Glossary On
Versions: 1 2 3 4 5 6 7 8 9 10 11 12 13 14 15 16
000
FTUS41 KAKQ 272320
TAFECG
TAF
KECG 272320Z 2800/2824 10007KT P6SM BKN120
     FM280600 00000KT P6SM VCSH BKN050
     FM281200 15004KT P6SM SCT100
     FM281700 18007KT P6SM BKN100=

USA.gov is the U.S. government's official web portal to all federal, state and local government web resources and services.